Terminal Aerodrome Forecast
Issued by NWS El Paso, TX

Home | Current Version | Previous Version | Text Only | Print | Product List | Glossary On
Versions: 1 2 3 4 5 6 7 8 9 10 11 12 13 14 15
000
FTUS44 KEPZ 281145
TAFELP
TAF
KELP 281145Z 2812/2912 VRB05KT P6SM SCT150 BKN250
     FM282200 29008KT P6SM VCTS SCT080CB BKN150
     FM290400 07007KT P6SM FEW080 BKN200=

USA.gov is the U.S. government's official web portal to all federal, state and local government web resources and services.